createdAt,value
2022-11-18T05:00:26.237Z,62.45
2022-11-18T05:02:53.528Z,62.41
2022-11-18T05:05:20.691Z,62.30
2022-11-18T05:07:47.918Z,62.38
2022-11-18T05:10:16.173Z,62.48
2022-11-18T05:12:50.350Z,62.37
2022-11-18T05:15:24.461Z,62.61
2022-11-18T05:17:52.033Z,62.62
2022-11-18T05:20:19.553Z,62.68
2022-11-18T05:22:47.343Z,62.55
2022-11-18T05:25:14.593Z,62.84
2022-11-18T05:27:41.824Z,62.64
2022-11-18T05:30:10.465Z,62.60
2022-11-18T05:32:38.318Z,62.69
2022-11-18T05:35:06.548Z,62.53
2022-11-18T05:37:34.104Z,62.61
2022-11-18T05:40:02.198Z,62.68
2022-11-18T05:42:49.217Z,62.66
2022-11-18T05:45:17.010Z,62.80
2022-11-18T05:48:04.973Z,62.62
2022-11-18T05:50:38.393Z,62.60
2022-11-18T05:53:05.782Z,62.64
2022-11-18T05:55:46.608Z,62.62
2022-11-18T05:58:14.280Z,62.70
2022-11-18T06:00:42.922Z,62.86
2022-11-18T06:03:19.014Z,62.89
2022-11-18T06:05:47.711Z,62.67
2022-11-18T06:08:19.277Z,62.95
2022-11-18T06:10:49.184Z,62.66
2022-11-18T06:13:26.993Z,62.71
2022-11-18T06:15:54.572Z,62.75
2022-11-18T06:18:29.670Z,62.68
2022-11-18T06:21:00.601Z,62.86
2022-11-18T06:23:31.875Z,62.87
2022-11-18T06:25:59.597Z,62.93
2022-11-18T06:28:28.657Z,62.87
2022-11-18T06:30:56.487Z,63.02
2022-11-18T06:33:24.523Z,62.87
2022-11-18T06:35:52.763Z,62.99
2022-11-18T06:38:23.912Z,62.98
2022-11-18T06:40:55.057Z,62.83
2022-11-18T06:43:41.188Z,62.63
2022-11-18T06:46:34.684Z,62.74
2022-11-18T06:49:03.283Z,62.87
2022-11-18T06:51:30.997Z,62.93
2022-11-18T06:53:58.746Z,62.91
2022-11-18T06:56:26.703Z,63.00
2022-11-18T06:58:56.360Z,63.08
2022-11-18T07:01:29.547Z,63.05
2022-11-18T07:03:59.662Z,62.95
2022-11-18T07:06:29.889Z,62.99
2022-11-18T07:09:00.069Z,62.95
2022-11-18T07:11:28.402Z,62.92
2022-11-18T07:13:56.354Z,62.94
2022-11-18T07:16:26.325Z,62.97
2022-11-18T07:18:56.231Z,63.06
2022-11-18T07:21:26.964Z,62.98
2022-11-18T07:23:56.742Z,62.95
2022-11-18T07:26:25.350Z,62.90
2022-11-18T07:28:54.763Z,63.14
2022-11-18T07:31:22.441Z,62.98
2022-11-18T07:33:50.606Z,63.07
2022-11-18T07:36:21.101Z,63.18
2022-11-18T07:38:53.630Z,63.10
2022-11-18T07:41:24.106Z,63.23
2022-11-18T07:44:00.049Z,63.14
2022-11-18T07:46:34.796Z,63.24
2022-11-18T07:49:04.945Z,63.14
2022-11-18T07:51:36.141Z,63.09
2022-11-18T07:54:12.447Z,62.94
2022-11-18T07:56:40.626Z,62.90
2022-11-18T07:59:08.873Z,62.72
2022-11-18T08:01:37.468Z,62.88
2022-11-18T08:04:08.341Z,62.89
2022-11-18T08:06:36.381Z,62.78
2022-11-18T08:09:05.889Z,62.76
2022-11-18T08:11:34.581Z,62.64
2022-11-18T08:14:02.612Z,62.64
2022-11-18T08:16:30.344Z,62.61
2022-11-18T08:19:00.903Z,62.58
2022-11-18T08:21:29.016Z,62.50
2022-11-18T08:23:58.379Z,62.42
2022-11-18T08:26:27.866Z,62.33
2022-11-18T08:28:55.687Z,62.53
2022-11-18T08:31:26.107Z,62.36
2022-11-18T08:34:05.115Z,62.36
2022-11-18T08:36:35.454Z,62.26
2022-11-18T08:39:06.155Z,62.13
2022-11-18T08:41:37.069Z,62.17
2022-11-18T08:44:05.656Z,62.09
2022-11-18T08:46:33.057Z,62.12
2022-11-18T08:49:01.738Z,62.41
2022-11-18T08:51:29.589Z,62.05
2022-11-18T08:53:57.064Z,62.14
2022-11-18T08:56:25.651Z,62.06
2022-11-18T08:58:53.741Z,62.20
2022-11-18T09:01:21.333Z,62.21
2022-11-18T09:03:49.695Z,62.10
2022-11-18T09:06:23.229Z,62.09
2022-11-18T09:08:51.257Z,62.08
2022-11-18T09:11:22.128Z,62.18
2022-11-18T09:16:45.544Z,62.17
2022-11-18T09:22:03.860Z,62.01
2022-11-18T09:24:32.145Z,61.90
2022-11-18T09:27:03.475Z,61.76
2022-11-18T09:29:31.510Z,61.96
2022-11-18T09:32:02.556Z,61.94
2022-11-18T09:34:30.589Z,62.19
2022-11-18T09:36:58.489Z,62.10
2022-11-18T09:39:26.835Z,62.02
2022-11-18T09:42:07.426Z,62.01
2022-11-18T09:44:54.277Z,62.11
2022-11-18T09:47:33.183Z,61.90
2022-11-18T09:50:26.768Z,61.94
2022-11-18T09:53:04.880Z,61.93
2022-11-18T09:55:35.418Z,62.02
2022-11-18T09:58:05.438Z,61.76
2022-11-18T10:00:34.601Z,61.42
2022-11-18T10:03:13.064Z,61.72
2022-11-18T10:05:59.657Z,61.74
2022-11-18T10:08:46.537Z,61.87
2022-11-18T10:11:24.764Z,62.01
2022-11-18T10:14:08.039Z,61.89
2022-11-18T10:16:57.705Z,62.14
2022-11-18T10:19:53.347Z,61.67
2022-11-18T10:22:28.295Z,61.84
2022-11-18T10:25:02.295Z,61.77
2022-11-18T10:27:43.750Z,61.95
2022-11-18T10:30:21.123Z,61.54
2022-11-18T10:33:24.084Z,61.60
2022-11-18T10:36:12.905Z,61.77
2022-11-18T10:38:43.274Z,61.62
2022-11-18T10:41:22.498Z,61.59
2022-11-18T10:43:58.264Z,61.52
2022-11-18T10:46:35.981Z,61.63
2022-11-18T10:49:19.794Z,61.68
2022-11-18T10:52:09.527Z,61.58
2022-11-18T10:54:43.752Z,61.61
2022-11-18T10:57:25.967Z,61.66
2022-11-18T10:59:58.253Z,61.59
2022-11-18T11:05:39.852Z,61.64
2022-11-18T11:08:39.329Z,61.40
2022-11-18T11:11:27.096Z,61.52
2022-11-18T11:14:37.965Z,61.52
2022-11-18T11:17:43.358Z,61.17
2022-11-18T11:20:18.915Z,61.18
2022-11-18T11:22:47.651Z,61.27
2022-11-18T11:25:24.977Z,61.42
2022-11-18T11:28:14.755Z,61.10
2022-11-18T11:31:24.847Z,61.36
2022-11-18T11:34:29.610Z,61.21
2022-11-18T11:37:04.968Z,61.03
2022-11-18T11:40:00.344Z,61.25
2022-11-18T11:42:48.725Z,61.18
2022-11-18T11:45:37.065Z,61.32
2022-11-18T11:48:14.321Z,61.16
2022-11-18T11:51:01.979Z,60.85
2022-11-18T11:53:45.415Z,61.01
2022-11-18T11:56:26.026Z,61.10
2022-11-18T11:59:13.625Z,61.06
2022-11-18T12:02:03.575Z,61.28
2022-11-18T12:04:31.483Z,61.38
2022-11-18T12:07:00.899Z,61.47
2022-11-18T12:09:35.458Z,61.28
2022-11-18T12:12:32.796Z,61.55
2022-11-18T12:15:39.405Z,61.53
2022-11-18T12:18:33.842Z,61.28
2022-11-18T12:21:00.981Z,61.23
2022-11-18T12:23:30.874Z,61.04
2022-11-18T12:26:04.661Z,61.14
2022-11-18T12:28:42.848Z,60.98
2022-11-18T12:31:19.689Z,60.88
2022-11-18T12:33:59.143Z,60.97
2022-11-18T12:36:29.357Z,60.93
2022-11-18T12:38:58.444Z,61.22
2022-11-18T12:42:00.562Z,61.16
2022-11-18T12:44:30.459Z,61.01
2022-11-18T12:47:00.170Z,61.06
2022-11-18T12:49:28.058Z,60.90
2022-11-18T12:52:00.902Z,60.95
2022-11-18T12:54:57.256Z,60.88
2022-11-18T12:57:30.721Z,60.74
2022-11-18T12:59:58.858Z,60.95
2022-11-18T13:02:31.088Z,60.83
2022-11-18T13:05:13.794Z,60.66
2022-11-18T13:08:11.985Z,60.82
2022-11-18T13:11:15.041Z,60.83
2022-11-18T13:13:44.667Z,60.73
2022-11-18T13:16:43.308Z,60.68
2022-11-18T13:19:22.696Z,60.57
2022-11-18T13:22:17.305Z,60.39
2022-11-18T13:24:51.309Z,60.54
2022-11-18T13:27:37.831Z,60.50
2022-11-18T13:30:11.914Z,60.36
2022-11-18T13:32:49.242Z,60.29
2022-11-18T13:35:22.012Z,60.30
2022-11-18T13:38:01.814Z,60.24
2022-11-18T13:41:08.917Z,60.32
2022-11-18T13:43:37.587Z,60.44
2022-11-18T13:46:20.688Z,60.49
2022-11-18T13:48:55.175Z,60.11
2022-11-18T13:51:24.500Z,60.10
2022-11-18T13:53:52.171Z,60.16
2022-11-18T13:56:30.269Z,60.18
2022-11-18T13:59:16.835Z,60.21
2022-11-18T14:01:59.846Z,60.10
2022-11-18T14:04:31.236Z,59.97
2022-11-18T14:07:24.172Z,60.11
2022-11-18T14:10:01.675Z,60.05
2022-11-18T14:12:48.752Z,60.08
2022-11-18T14:15:43.232Z,59.98
2022-11-18T14:18:31.845Z,60.05
2022-11-18T14:21:05.581Z,60.08
2022-11-18T14:23:37.613Z,60.06
2022-11-18T14:26:07.639Z,60.10
2022-11-18T14:28:37.819Z,60.09
2022-11-18T14:31:16.100Z,60.32
2022-11-18T14:34:03.336Z,60.32
2022-11-18T14:36:30.924Z,60.19
2022-11-18T14:39:19.855Z,60.25
2022-11-18T14:41:49.413Z,60.23
2022-11-18T14:44:18.899Z,60.33
2022-11-18T14:46:58.561Z,60.28
2022-11-18T14:49:28.116Z,60.14
2022-11-18T14:51:56.297Z,59.98
2022-11-18T14:54:27.913Z,60.12
2022-11-18T14:57:00.497Z,60.08
2022-11-18T14:59:28.655Z,60.08
2022-11-18T15:01:57.422Z,59.97
2022-11-18T15:04:25.860Z,60.08
2022-11-18T15:06:53.461Z,59.80
2022-11-18T15:09:21.602Z,59.83
2022-11-18T15:11:49.479Z,59.77
2022-11-18T15:14:17.946Z,59.95
2022-11-18T15:17:30.152Z,59.92
2022-11-18T15:20:01.348Z,59.90
2022-11-18T15:22:28.592Z,59.69
2022-11-18T15:24:56.250Z,59.43
2022-11-18T15:27:23.479Z,59.64
2022-11-18T15:29:50.773Z,59.64
2022-11-18T15:32:17.985Z,59.79
2022-11-18T15:34:45.701Z,59.81
2022-11-18T15:37:13.389Z,59.70
2022-11-18T15:39:40.724Z,59.45
2022-11-18T15:42:08.190Z,59.42
2022-11-18T15:44:35.415Z,59.40
2022-11-18T15:47:03.031Z,59.32
2022-11-18T15:49:30.792Z,59.31
2022-11-18T15:51:58.066Z,59.34
2022-11-18T15:54:25.693Z,59.42
2022-11-18T15:56:52.968Z,59.29
2022-11-18T15:59:20.387Z,59.24
2022-11-18T16:01:49.585Z,59.32
2022-11-18T16:04:19.559Z,59.30
2022-11-18T16:06:47.733Z,59.32
2022-11-18T16:09:16.686Z,59.28
2022-11-18T16:12:03.172Z,59.15
2022-11-18T16:14:30.631Z,59.36
2022-11-18T16:16:57.943Z,59.39
2022-11-18T16:19:26.922Z,59.35
2022-11-18T16:21:57.758Z,59.39
2022-11-18T16:24:28.925Z,59.22
2022-11-18T16:26:57.167Z,59.30
2022-11-18T16:29:25.055Z,59.37
2022-11-18T16:31:54.977Z,59.33
2022-11-18T16:34:28.176Z,59.44
2022-11-18T16:37:02.555Z,59.22
2022-11-18T16:39:33.248Z,59.25
2022-11-18T16:42:08.459Z,59.40
2022-11-18T16:44:37.805Z,59.34
2022-11-18T16:47:12.482Z,59.34
2022-11-18T16:49:43.332Z,59.29
2022-11-18T16:52:11.632Z,59.17
2022-11-18T16:54:44.660Z,59.02
2022-11-18T16:57:17.636Z,59.10
2022-11-18T16:59:45.678Z,59.13
2022-11-18T17:02:14.319Z,59.28
2022-11-18T17:04:42.716Z,59.10
2022-11-18T17:07:10.074Z,59.08
2022-11-18T17:09:38.094Z,59.13
2022-11-18T17:12:06.157Z,59.06
2022-11-18T17:14:34.446Z,59.02
2022-11-18T17:17:02.405Z,58.99
2022-11-18T17:19:30.605Z,59.02
2022-11-18T17:21:59.083Z,59.14
2022-11-18T17:24:27.561Z,59.11
2022-11-18T17:26:55.874Z,59.24
2022-11-18T17:29:23.424Z,58.94
2022-11-18T17:31:50.636Z,58.96
2022-11-18T17:34:19.620Z,59.05
2022-11-18T17:36:47.993Z,59.15
2022-11-18T17:39:18.042Z,58.94
2022-11-18T17:42:04.843Z,59.00
2022-11-18T17:44:33.185Z,59.06
2022-11-18T17:47:03.365Z,59.08
2022-11-18T17:49:33.895Z,59.20
2022-11-18T17:52:01.536Z,59.12
2022-11-18T17:54:28.814Z,59.31
2022-11-18T17:56:56.129Z,59.23
2022-11-18T17:59:23.988Z,59.10
2022-11-18T18:01:57.550Z,58.93
2022-11-18T18:04:26.537Z,59.17
2022-11-18T18:06:55.794Z,59.11
2022-11-18T18:09:30.557Z,59.15
2022-11-18T18:12:22.968Z,58.92
2022-11-18T18:14:53.475Z,58.85
2022-11-18T18:17:23.694Z,58.90
2022-11-18T18:19:51.033Z,58.76
2022-11-18T18:22:19.413Z,58.69
2022-11-18T18:24:47.170Z,58.82
2022-11-18T18:27:14.642Z,58.83
2022-11-18T18:29:41.933Z,58.81
2022-11-18T18:32:09.085Z,58.74
2022-11-18T18:34:36.661Z,58.71
2022-11-18T18:37:05.083Z,58.69
2022-11-18T18:39:32.890Z,58.63
2022-11-18T18:42:00.681Z,58.65
2022-11-18T18:44:48.034Z,58.55
2022-11-18T18:47:15.475Z,58.65
2022-11-18T18:49:43.006Z,58.53
2022-11-18T18:52:11.702Z,58.43
2022-11-18T18:54:43.072Z,58.60
2022-11-18T18:57:14.634Z,58.51
2022-11-18T18:59:46.590Z,58.40
2022-11-18T19:02:14.366Z,58.42
2022-11-18T19:04:42.957Z,58.48
2022-11-18T19:07:11.809Z,58.41
2022-11-18T19:09:44.692Z,58.43
2022-11-18T19:16:12.373Z,58.51
2022-11-18T19:18:41.340Z,58.61
2022-11-18T19:21:10.957Z,58.62
2022-11-18T19:23:40.740Z,58.54
2022-11-18T19:26:13.972Z,58.47
2022-11-18T19:28:41.517Z,58.30
2022-11-18T19:31:09.274Z,58.58
2022-11-18T19:33:37.733Z,58.66
2022-11-18T19:36:12.337Z,58.52
2022-11-18T19:38:41.750Z,58.49
2022-11-18T19:41:11.367Z,58.51
2022-11-18T19:43:39.301Z,58.48
2022-11-18T19:46:11.751Z,58.50
2022-11-18T19:48:40.974Z,58.40
2022-11-18T19:51:15.827Z,58.45
2022-11-18T19:53:46.778Z,58.39
2022-11-18T19:56:22.017Z,58.49
2022-11-18T19:58:57.171Z,58.58
2022-11-18T20:01:28.876Z,58.49
2022-11-18T20:03:58.917Z,58.52
2022-11-18T20:06:28.123Z,58.50
2022-11-18T20:08:58.274Z,58.48
2022-11-18T20:11:26.733Z,58.37
2022-11-18T20:13:54.299Z,58.60
2022-11-18T20:16:23.785Z,58.30
2022-11-18T20:19:02.903Z,58.53
2022-11-18T20:21:34.421Z,58.61
2022-11-18T20:24:04.709Z,58.51
2022-11-18T20:26:37.573Z,58.49
2022-11-18T20:29:07.381Z,58.51
2022-11-18T20:31:38.966Z,58.63
2022-11-18T20:34:06.327Z,58.53
2022-11-18T20:36:36.324Z,58.39
2022-11-18T20:39:07.045Z,58.68
2022-11-18T20:41:35.252Z,58.44
2022-11-18T20:44:03.952Z,58.42
2022-11-18T20:46:34.688Z,58.44
2022-11-18T20:49:02.564Z,58.37
2022-11-18T20:51:30.443Z,58.48
2022-11-18T20:53:59.992Z,58.39
2022-11-18T20:56:28.243Z,58.10
2022-11-18T20:58:58.603Z,58.22
2022-11-18T21:01:29.595Z,58.46
2022-11-18T21:04:03.735Z,58.41
2022-11-18T21:06:32.938Z,58.44
2022-11-18T21:09:05.367Z,58.21
2022-11-18T21:11:41.970Z,58.31
2022-11-18T21:14:24.711Z,58.45
2022-11-18T21:17:03.225Z,58.38
2022-11-18T21:19:33.483Z,58.50
2022-11-18T21:22:00.660Z,58.45
2022-11-18T21:24:32.894Z,58.75
2022-11-18T21:27:02.784Z,58.72
2022-11-18T21:29:32.646Z,58.70
2022-11-18T21:32:03.404Z,58.69
2022-11-18T21:34:34.232Z,58.76
2022-11-18T21:37:01.750Z,58.74
2022-11-18T21:39:29.129Z,58.68
2022-11-18T21:41:57.691Z,58.71
2022-11-18T21:44:28.734Z,58.64
2022-11-18T21:46:57.398Z,58.98
2022-11-18T21:49:24.803Z,59.06
2022-11-18T21:51:52.593Z,59.03
2022-11-18T21:54:20.040Z,59.07
2022-11-18T21:56:48.109Z,59.00
2022-11-18T21:59:16.550Z,58.83
2022-11-18T22:01:44.831Z,58.39
2022-11-18T22:04:33.088Z,58.54
2022-11-18T22:07:01.113Z,58.82
2022-11-18T22:09:34.675Z,58.89
2022-11-18T22:12:06.384Z,58.91
2022-11-18T22:14:33.846Z,58.81
2022-11-18T22:17:02.132Z,58.93
2022-11-18T22:19:30.636Z,58.80
2022-11-18T22:21:57.882Z,58.93
2022-11-18T22:24:26.009Z,58.81
2022-11-18T22:26:53.431Z,58.82
2022-11-18T22:29:21.174Z,58.61
2022-11-18T22:31:48.864Z,58.57
2022-11-18T22:34:16.293Z,58.49
2022-11-18T22:36:44.212Z,58.78
2022-11-18T22:39:11.561Z,58.95
2022-11-18T22:41:58.553Z,59.17
2022-11-18T22:44:27.619Z,59.06
2022-11-18T22:46:55.534Z,59.05
2022-11-18T22:49:24.314Z,59.14
2022-11-18T22:51:52.324Z,59.11
2022-11-18T22:57:07.205Z,59.02
2022-11-18T22:59:34.965Z,59.16
2022-11-18T23:02:05.314Z,59.09
2022-11-18T23:04:33.191Z,58.90
2022-11-18T23:07:00.985Z,59.11
2022-11-18T23:09:29.005Z,59.12
2022-11-18T23:12:16.043Z,59.12
2022-11-18T23:14:43.996Z,59.14
2022-11-18T23:17:11.864Z,59.07
2022-11-18T23:19:44.314Z,59.30
2022-11-18T23:22:13.241Z,59.39
2022-11-18T23:24:40.953Z,59.38
2022-11-18T23:27:09.242Z,59.17
2022-11-18T23:29:37.126Z,59.06
2022-11-18T23:32:05.873Z,59.13
2022-11-18T23:34:33.842Z,59.22
2022-11-18T23:37:01.844Z,59.11
2022-11-18T23:39:29.798Z,59.19
2022-11-18T23:41:57.424Z,59.38
2022-11-18T23:44:45.499Z,59.49
2022-11-18T23:47:13.978Z,59.28
2022-11-18T23:49:42.080Z,59.37
2022-11-18T23:52:09.995Z,59.48
2022-11-18T23:54:37.842Z,59.38
2022-11-18T23:57:05.704Z,59.47
2022-11-18T23:59:34.146Z,59.50
